Time;durP1;ratioP1;P1;durP2;ratioP2;P2;SDS_P1;SDS_P2;PMS_P1;PMS_P2;Temp;Humidity;BMP_temperature;BMP_pressure;BME280_temperature;BME280_humidity;BME280_pressure;Samples;Min_cycle;Max_cycle;Signal;HPM_P1;HPM_P2
2021/05/06 00:32:38;;;;;;;3.70;2.47;;;13.60;51.60;;;;;;5156368;27;20574;-76
2021/05/06 00:35:06;;;;;;;5.90;2.60;;;13.70;51.60;;;;;;5156005;27;20031;-76
2021/05/06 00:37:40;;;;;;;4.68;2.42;;;13.70;51.70;;;;;;5155591;27;20530;-75
2021/05/06 00:40:09;;;;;;;3.92;2.20;;;13.70;51.70;;;;;;5155738;27;20488;-76
2021/05/06 01:09:36;;;;;;;4.75;2.30;;;13.60;52.40;;;;;;5134870;27;20038;-77
2021/05/06 01:12:04;;;;;;;3.45;2.10;;;13.60;52.50;;;;;;5135092;27;20110;-77
2021/05/06 01:14:31;;;;;;;3.20;2.90;;;13.60;52.60;;;;;;5148307;27;20075;-77
2021/05/06 01:16:57;;;;;;;6.60;4.57;;;13.60;52.90;;;;;;5154954;27;20468;-76
2021/05/06 01:19:23;;;;;;;6.50;4.45;;;13.50;52.90;;;;;;5155914;27;20018;-77
2021/05/06 01:21:49;;;;;;;8.68;3.50;;;13.50;53.10;;;;;;5155436;27;20051;-77
2021/05/06 01:24:15;;;;;;;6.25;3.40;;;13.50;53.30;;;;;;5155170;27;20421;-76
2021/05/06 01:27:26;;;;;;;5.25;2.70;;;13.50;53.50;;;;;;5155341;27;20031;-77
2021/05/06 01:29:35;;;;;;;6.45;2.58;;;13.50;53.50;;;;;;5146672;27;20083;-77
2021/05/06 01:35:00;;;;;;;5.93;2.40;;;13.50;53.80;;;;;;5113739;27;20046;-76
2021/05/06 01:40:21;;;;;;;3.53;2.30;;;13.50;54.30;;;;;;5134550;27;20023;-76
2021/05/06 01:42:50;;;;;;;3.10;2.05;;;13.50;54.50;;;;;;5134717;28;20043;-76
2021/05/06 01:45:42;;;;;;;3.78;2.30;;;13.40;54.80;;;;;;5154247;27;20018;-77
2021/05/06 01:48:59;;;;;;;4.25;2.40;;;13.40;55.10;;;;;;5155115;27;20407;-76
2021/05/06 02:01:42;;;;;;;5.15;2.90;;;13.20;57.00;;;;;;5153340;27;20039;-78
2021/05/06 02:04:08;;;;;;;4.13;2.50;;;13.10;57.50;;;;;;5144944;27;20071;-77
2021/05/06 02:06:34;;;;;;;5.13;2.70;;;13.10;57.90;;;;;;5141486;27;20432;-77
2021/05/06 02:09:00;;;;;;;4.30;2.85;;;13.10;58.20;;;;;;5144731;27;20027;-76
2021/05/06 02:11:25;;;;;;;6.45;3.28;;;13.10;58.40;;;;;;5144882;27;20483;-77
2021/05/06 02:13:53;;;;;;;5.53;2.72;;;13.00;58.70;;;;;;5144383;27;20030;-78
2021/05/06 02:16:29;;;;;;;4.93;3.22;;;13.00;59.00;;;;;;5143222;27;20029;-76
2021/05/06 02:18:55;;;;;;;4.80;3.50;;;13.00;59.30;;;;;;5141812;27;20042;-76
2021/05/06 02:21:21;;;;;;;9.75;3.60;;;13.00;59.40;;;;;;5141915;27;20031;-78
2021/05/06 02:23:46;;;;;;;6.60;3.05;;;13.00;59.50;;;;;;5144064;27;20019;-76
2021/05/06 02:26:12;;;;;;;7.40;3.65;;;13.00;59.80;;;;;;5143528;27;20042;-76
2021/05/06 02:28:38;;;;;;;5.65;3.22;;;12.90;60.20;;;;;;5143556;27;20102;-76
2021/05/06 02:31:03;;;;;;;4.97;3.58;;;12.90;60.60;;;;;;5142231;27;20106;-76
2021/05/06 02:33:29;;;;;;;5.25;3.28;;;12.90;60.20;;;;;;5143806;27;20023;-75
2021/05/06 02:35:55;;;;;;;5.43;3.38;;;12.90;60.40;;;;;;5125811;27;20068;-77
2021/05/06 02:38:21;;;;;;;4.65;2.92;;;12.90;60.60;;;;;;5149184;27;20456;-79
2021/05/06 02:40:46;;;;;;;6.40;3.20;;;12.90;60.60;;;;;;5142068;27;20050;-76
2021/05/06 02:43:12;;;;;;;6.63;3.28;;;12.90;60.60;;;;;;5143820;27;20081;-76
2021/05/06 02:45:38;;;;;;;5.75;2.83;;;12.90;60.50;;;;;;5143659;27;20019;-76
2021/05/06 02:48:04;;;;;;;4.00;3.15;;;12.90;60.40;;;;;;5146028;27;20520;-76
2021/05/06 02:50:30;;;;;;;6.28;2.78;;;12.90;60.20;;;;;;5147586;27;20019;-76
2021/05/06 02:58:03;;;;;;;8.35;3.42;;;13.00;59.80;;;;;;5158042;27;20043;-76
2021/05/06 03:03:13;;;;;;;5.60;3.07;;;13.00;59.50;;;;;;5150977;27;20132;-76
2021/05/06 03:05:39;;;;;;;11.25;3.30;;;13.00;59.40;;;;;;5129481;27;20032;-77
2021/05/06 03:08:10;;;;;;;9.45;3.85;;;13.00;59.40;;;;;;5145381;27;20026;-77
2021/05/06 03:23:48;;;;;;;4.78;3.00;;;13.20;58.50;;;;;;5144473;27;20042;-76
2021/05/06 03:26:15;;;;;;;4.75;2.70;;;13.20;58.40;;;;;;5127944;27;20091;-76
2021/05/06 03:28:47;;;;;;;5.55;2.95;;;13.20;58.30;;;;;;5145920;27;20521;-76
2021/05/06 03:42:21;;;;;;;5.72;2.92;;;13.20;58.30;;;;;;5144642;27;20460;-77
2021/05/06 04:25:32;;;;;;;4.25;2.58;;;13.80;57.90;;;;;;5140702;27;20445;-77
2021/05/06 04:28:05;;;;;;;5.47;2.67;;;13.90;57.80;;;;;;5099365;27;20120;-77
2021/05/06 04:35:45;;;;;;;3.33;2.13;;;14.10;57.70;;;;;;5155797;27;20042;-77
2021/05/06 04:38:13;;;;;;;4.43;2.50;;;14.10;57.10;;;;;;5155832;27;20038;-77
2021/05/06 04:53:54;;;;;;;5.63;2.88;;;14.60;55.50;;;;;;5145053;27;20076;-77
2021/05/06 05:06:31;;;;;;;7.03;3.03;;;15.10;53.90;;;;;;5144233;27;20059;-78
2021/05/06 05:11:41;;;;;;;5.78;2.60;;;15.30;53.10;;;;;;5145097;27;20404;-77
2021/05/06 05:19:45;;;;;;;8.50;2.75;;;15.60;52.30;;;;;;5142566;27;20084;-77
2021/05/06 05:25:09;;;;;;;6.85;2.42;;;15.60;51.90;;;;;;5128923;27;20456;-77
2021/05/06 05:27:35;;;;;;;8.88;2.60;;;15.60;52.10;;;;;;5137278;27;20384;-77
2021/05/06 05:30:01;;;;;;;6.07;2.35;;;15.60;52.10;;;;;;5145289;27;20038;-76
2021/05/06 05:32:27;;;;;;;4.22;2.25;;;15.60;52.10;;;;;;5145212;27;20019;-79
2021/05/06 05:35:02;;;;;;;3.92;2.30;;;15.60;52.00;;;;;;5142779;27;20025;-79
2021/05/06 05:37:42;;;;;;;3.80;2.55;;;15.60;52.10;;;;;;5146930;27;20388;-77
2021/05/06 05:43:00;;;;;;;5.00;2.28;;;15.70;52.10;;;;;;5145474;27;20043;-77
2021/05/06 05:56:18;;;;;;;4.80;2.55;;;15.90;51.50;;;;;;5140170;27;20077;-77
2021/05/06 05:58:43;;;;;;;8.68;2.50;;;15.90;51.40;;;;;;5141998;27;20095;-77
2021/05/06 06:01:09;;;;;;;2.30;2.10;;;15.80;51.50;;;;;;5143668;27;20034;-77
2021/05/06 06:03:35;;;;;;;9.07;2.70;;;15.80;51.50;;;;;;5143000;27;20022;-78
2021/05/06 06:06:02;;;;;;;3.00;2.30;;;15.80;51.50;;;;;;5143925;27;20030;-77
2021/05/06 06:08:30;;;;;;;9.80;4.20;;;15.90;51.40;;;;;;5151039;27;20103;-78
2021/05/06 06:10:56;;;;;;;8.65;2.65;;;16.20;51.40;;;;;;5154750;27;20034;-77
2021/05/06 06:13:22;;;;;;;3.63;2.50;;;16.40;51.20;;;;;;5154221;27;20384;-78
2021/05/06 06:16:10;;;;;;;8.93;2.53;;;16.60;50.60;;;;;;5153943;27;20026;-77
2021/05/06 06:21:06;;;;;;;6.80;2.40;;;16.70;49.40;;;;;;5154531;27;20027;-77
2021/05/06 06:23:32;;;;;;;5.03;2.97;;;16.70;49.30;;;;;;5154279;27;20567;-77
2021/05/06 06:25:59;;;;;;;5.07;2.22;;;16.70;49.40;;;;;;5144631;27;20161;-77
2021/05/06 06:28:26;;;;;;;4.40;2.15;;;16.70;49.50;;;;;;5157365;27;20027;-77
2021/05/06 06:30:52;;;;;;;5.97;2.25;;;16.60;49.50;;;;;;5146222;27;20356;-77
2021/05/06 06:33:18;;;;;;;5.65;2.30;;;16.60;49.60;;;;;;5158481;27;20070;-77
2021/05/06 06:35:43;;;;;;;5.57;2.70;;;16.60;49.70;;;;;;5158049;27;20053;-77
2021/05/06 06:38:10;;;;;;;4.75;2.20;;;16.60;50.30;;;;;;5158302;27;20034;-76
2021/05/06 06:40:35;;;;;;;7.50;2.30;;;16.60;49.80;;;;;;5157029;27;20026;-76
2021/05/06 06:43:01;;;;;;;4.32;2.22;;;16.60;49.50;;;;;;5158896;27;20080;-75
2021/05/06 06:45:27;;;;;;;7.90;2.97;;;16.60;49.30;;;;;;5139746;27;20079;-77
2021/05/06 06:47:56;;;;;;;5.15;2.25;;;16.70;49.10;;;;;;5157749;27;20018;-77
2021/05/06 06:50:22;;;;;;;2.03;1.73;;;16.70;48.80;;;;;;5122502;27;20477;-77
2021/05/06 06:52:48;;;;;;;6.82;2.20;;;16.80;48.40;;;;;;5137708;27;20034;-77
2021/05/06 06:55:14;;;;;;;5.35;2.28;;;16.70;48.10;;;;;;5140227;27;20024;-77
2021/05/06 06:57:40;;;;;;;7.03;2.40;;;16.70;48.20;;;;;;5157651;27;20517;-77
2021/05/06 07:00:07;;;;;;;6.47;1.90;;;16.60;48.40;;;;;;5156892;27;20034;-76
2021/05/06 07:02:33;;;;;;;3.30;1.92;;;16.50;48.50;;;;;;5145708;27;20035;-77
2021/05/06 07:04:58;;;;;;;4.38;2.00;;;16.50;48.70;;;;;;5138701;27;20023;-77
2021/05/06 07:07:24;;;;;;;7.78;2.80;;;16.50;48.70;;;;;;5137243;27;20088;-77
2021/05/06 07:09:50;;;;;;;6.32;2.65;;;16.40;48.90;;;;;;5153907;27;20049;-76
2021/05/06 07:12:16;;;;;;;4.32;2.50;;;16.40;48.90;;;;;;5139281;27;20475;-76
2021/05/06 07:14:42;;;;;;;5.18;2.53;;;16.40;49.90;;;;;;5157423;27;20057;-78
2021/05/06 07:17:08;;;;;;;5.22;2.20;;;16.40;49.50;;;;;;5157001;27;20030;-77
2021/05/06 07:19:37;;;;;;;5.85;2.83;;;16.40;49.70;;;;;;5154355;27;20119;-77
2021/05/06 07:22:03;;;;;;;4.10;2.05;;;16.40;50.00;;;;;;5152242;27;20023;-76
2021/05/06 07:24:31;;;;;;;4.13;2.40;;;16.40;50.90;;;;;;5149312;27;20034;-76
2021/05/06 07:26:57;;;;;;;2.97;2.03;;;16.40;50.80;;;;;;5147156;27;20079;-79
2021/05/06 07:29:23;;;;;;;4.63;2.15;;;16.30;51.20;;;;;;5145551;27;20460;-77
2021/05/06 07:31:50;;;;;;;4.45;2.55;;;16.30;51.70;;;;;;5148314;27;20380;-77
2021/05/06 07:34:16;;;;;;;3.55;2.25;;;16.30;52.60;;;;;;5147669;27;20027;-77
2021/05/06 07:36:42;;;;;;;3.53;2.15;;;16.20;53.20;;;;;;5119233;27;20038;-76
2021/05/06 07:39:07;;;;;;;4.90;2.80;;;16.20;53.90;;;;;;5147559;27;20019;-77
2021/05/06 07:41:33;;;;;;;3.53;2.47;;;16.20;54.70;;;;;;5136217;27;20042;-78
2021/05/06 07:43:59;;;;;;;3.25;2.30;;;16.20;55.20;;;;;;5141800;27;20023;-77
2021/05/06 07:46:25;;;;;;;6.80;2.80;;;16.30;55.00;;;;;;5154913;27;20031;-77
2021/05/06 07:48:52;;;;;;;4.30;2.40;;;16.50;55.10;;;;;;5156172;27;20075;-76
2021/05/06 07:51:18;;;;;;;3.22;2.15;;;16.70;54.70;;;;;;5156518;27;20437;-76
2021/05/06 07:53:48;;;;;;;5.25;2.60;;;16.60;54.10;;;;;;5156076;27;20058;-77
2021/05/06 07:56:14;;;;;;;3.67;2.30;;;16.50;54.40;;;;;;5155078;27;20022;-77
2021/05/06 07:58:40;;;;;;;4.68;2.40;;;16.40;54.90;;;;;;5154430;27;20485;-77
2021/05/06 08:05:12;;;;;;;6.93;2.78;;;16.60;55.40;;;;;;5155717;27;20065;-77
2021/05/06 08:07:37;;;;;;;8.43;2.83;;;17.00;55.50;;;;;;5156390;27;20048;-77
2021/05/06 08:10:06;;;;;;;4.10;2.75;;;17.20;54.80;;;;;;5156700;27;20023;-77
2021/05/06 08:12:32;;;;;;;6.63;3.05;;;17.40;54.60;;;;;;5156663;27;20306;-77
2021/05/06 08:14:58;;;;;;;5.68;2.95;;;17.50;54.10;;;;;;5137718;27;20023;-77
2021/05/06 08:17:24;;;;;;;10.68;2.95;;;17.50;54.00;;;;;;5137891;27;20048;-78
2021/05/06 08:19:50;;;;;;;2.15;1.98;;;17.70;53.90;;;;;;5156059;27;20428;-76
2021/05/06 08:22:16;;;;;;;6.85;2.83;;;17.80;53.40;;;;;;5156445;27;20109;-77
2021/05/06 08:24:42;;;;;;;5.38;2.70;;;18.00;53.10;;;;;;5155325;27;20065;-76
2021/05/06 08:27:09;;;;;;;5.50;3.38;;;18.10;52.90;;;;;;5154990;27;20038;-77
2021/05/06 08:29:35;;;;;;;6.13;2.90;;;18.20;52.60;;;;;;5156041;27;20022;-76
2021/05/06 08:32:00;;;;;;;9.05;2.97;;;18.20;52.60;;;;;;5156333;27;20026;-76
2021/05/06 08:34:26;;;;;;;4.45;2.63;;;18.40;52.90;;;;;;5155979;27;20034;-76
2021/05/06 08:36:52;;;;;;;4.03;2.50;;;18.60;52.10;;;;;;5156117;27;20384;-76
2021/05/06 08:39:18;;;;;;;6.53;2.97;;;18.90;51.80;;;;;;5154344;27;20050;-75
2021/05/06 08:41:44;;;;;;;5.43;2.70;;;19.10;52.20;;;;;;5155170;27;20034;-75
2021/05/06 08:44:12;;;;;;;5.90;3.15;;;19.40;51.40;;;;;;5155945;27;20111;-76
2021/05/06 08:46:50;;;;;;;4.30;3.20;;;19.60;51.20;;;;;;5155144;27;20045;-79
2021/05/06 08:49:16;;;;;;;4.55;2.67;;;19.50;51.10;;;;;;5137071;27;20428;-77
2021/05/06 08:51:43;;;;;;;6.13;2.80;;;19.10;51.30;;;;;;5155616;27;20022;-76
2021/05/06 08:54:09;;;;;;;6.15;3.15;;;18.60;51.90;;;;;;5145348;27;20130;-76
2021/05/06 08:56:34;;;;;;;7.13;3.80;;;18.10;53.00;;;;;;5145564;27;20465;-76
2021/05/06 08:59:00;;;;;;;8.82;3.05;;;17.90;54.00;;;;;;5154190;27;20026;-76
2021/05/06 09:01:26;;;;;;;4.38;3.08;;;17.70;54.60;;;;;;5151685;27;20014;-76
2021/05/06 09:03:51;;;;;;;6.13;3.40;;;17.70;55.10;;;;;;5155553;27;20058;-77
2021/05/06 09:06:19;;;;;;;10.32;3.35;;;17.80;55.20;;;;;;5134805;27;20879;-76
2021/05/06 09:08:52;;;;;;;4.97;3.05;;;18.30;55.20;;;;;;5149015;27;20071;-77
2021/05/06 09:11:30;;;;;;;3.70;3.15;;;19.30;54.40;;;;;;5151282;27;20050;-77
2021/05/06 09:14:09;;;;;;;7.65;3.15;;;20.30;52.30;;;;;;5152533;27;20034;-80
2021/05/06 09:16:35;;;;;;;6.88;3.22;;;21.30;50.80;;;;;;5152256;27;20038;-79
2021/05/06 09:19:06;;;;;;;8.55;3.10;;;21.60;49.20;;;;;;5152877;27;20034;-82
2021/05/06 09:21:37;;;;;;;8.50;3.40;;;22.00;49.20;;;;;;5153123;27;20368;-81
2021/05/06 09:24:19;;;;;;;11.85;3.72;;;22.40;48.20;;;;;;5152327;27;20072;-82
2021/05/06 09:26:48;;;;;;;6.00;3.58;;;22.10;47.40;;;;;;5150667;27;20019;-77
2021/05/06 09:29:34;;;;;;;5.90;3.08;;;21.70;47.70;;;;;;5149895;27;20027;-76
2021/05/06 09:32:20;;;;;;;3.20;2.90;;;21.00;48.50;;;;;;5143650;27;20077;-76
2021/05/06 09:34:48;;;;;;;8.68;3.35;;;20.40;49.70;;;;;;5142500;27;20028;-77
2021/05/06 09:37:34;;;;;;;5.07;3.30;;;19.90;50.60;;;;;;5143583;27;20464;-76
2021/05/06 09:40:06;;;;;;;5.63;3.47;;;19.40;51.70;;;;;;5143085;27;20083;-77
2021/05/06 09:42:50;;;;;;;6.57;3.47;;;19.00;52.60;;;;;;5152737;27;20054;-76
2021/05/06 09:45:22;;;;;;;5.07;3.55;;;18.60;53.50;;;;;;5152021;27;20033;-77
2021/05/06 09:48:13;;;;;;;6.32;3.70;;;18.30;54.40;;;;;;5151766;27;20034;-76
2021/05/06 09:50:41;;;;;;;10.32;4.18;;;18.00;55.30;;;;;;5152924;27;20023;-81
2021/05/06 09:53:14;;;;;;;6.50;3.88;;;17.80;56.50;;;;;;5150771;27;20027;-77
2021/05/06 09:55:41;;;;;;;7.05;3.92;;;17.50;57.80;;;;;;5153956;27;20018;-77
2021/05/06 09:58:17;;;;;;;8.23;4.10;;;17.20;58.80;;;;;;5156260;27;20050;-77
2021/05/06 10:00:44;;;;;;;7.15;4.45;;;17.00;59.90;;;;;;5158083;27;20034;-76
2021/05/06 10:03:22;;;;;;;7.13;4.25;;;16.70;60.60;;;;;;5155487;27;20027;-77
2021/05/06 10:05:50;;;;;;;7.18;3.92;;;16.50;62.00;;;;;;5155996;27;20022;-77
2021/05/06 10:08:16;;;;;;;6.10;4.25;;;16.40;62.40;;;;;;5155714;27;20050;-77
2021/05/06 10:10:43;;;;;;;5.70;4.20;;;16.30;63.20;;;;;;5137646;27;20034;-77
2021/05/06 10:13:10;;;;;;;7.60;4.88;;;16.20;64.00;;;;;;5158045;27;20527;-77
2021/05/06 10:15:40;;;;;;;11.60;4.60;;;16.20;64.70;;;;;;5157747;27;20015;-76
2021/05/06 10:18:07;;;;;;;7.18;4.40;;;16.00;65.20;;;;;;5155154;27;20042;-77
2021/05/06 10:20:33;;;;;;;9.52;4.72;;;15.90;65.90;;;;;;5156394;27;20027;-76
2021/05/06 10:23:01;;;;;;;8.27;4.40;;;15.90;66.50;;;;;;5149958;27;20088;-75
2021/05/06 10:25:27;;;;;;;5.20;4.28;;;16.00;66.60;;;;;;5145108;27;20143;-77
2021/05/06 10:27:54;;;;;;;6.35;4.10;;;16.10;66.60;;;;;;5124542;27;20116;-77
2021/05/06 10:30:22;;;;;;;5.47;4.03;;;16.20;66.50;;;;;;5146231;27;20023;-77
2021/05/06 10:32:48;;;;;;;4.55;4.05;;;16.30;66.10;;;;;;5146547;27;20413;-77
2021/05/06 10:35:26;;;;;;;8.48;4.90;;;16.30;65.60;;;;;;5156000;27;20113;-77
2021/05/06 10:37:57;;;;;;;5.13;4.13;;;16.30;65.40;;;;;;5153195;27;20019;-76
2021/05/06 10:40:23;;;;;;;7.88;4.60;;;16.30;65.20;;;;;;5155202;27;20029;-76
2021/05/06 10:42:50;;;;;;;9.93;5.13;;;16.30;65.10;;;;;;5143684;27;20115;-76
2021/05/06 10:45:19;;;;;;;12.40;5.47;;;16.30;65.10;;;;;;5134339;27;20030;-78
2021/05/06 10:47:48;;;;;;;9.52;5.78;;;16.30;65.10;;;;;;5152752;27;20102;-74
2021/05/06 10:50:36;;;;;;;10.32;5.20;;;16.20;65.10;;;;;;5146086;27;20151;-77
2021/05/06 10:53:04;;;;;;;10.05;4.57;;;16.10;65.30;;;;;;5142567;27;20027;-75
2021/05/06 10:55:47;;;;;;;6.95;4.35;;;16.10;65.40;;;;;;5152807;27;20029;-74
2021/05/06 10:58:25;;;;;;;8.02;4.65;;;16.10;65.50;;;;;;5139786;27;20043;-76
2021/05/06 11:01:08;;;;;;;5.55;4.10;;;16.10;65.70;;;;;;5152912;27;20011;-77
2021/05/06 11:03:36;;;;;;;9.13;4.70;;;16.10;65.90;;;;;;5155397;27;20033;-75
2021/05/06 11:06:03;;;;;;;7.97;4.50;;;16.20;65.90;;;;;;5156883;27;20042;-76
2021/05/06 11:08:30;;;;;;;9.45;4.80;;;16.20;66.40;;;;;;5155452;27;20099;-75
2021/05/06 11:10:56;;;;;;;7.38;4.97;;;16.20;67.00;;;;;;5153904;27;20024;-74
2021/05/06 11:13:23;;;;;;;10.20;6.18;;;16.20;67.30;;;;;;5135864;27;20099;-75
2021/05/06 11:15:50;;;;;;;8.15;5.50;;;16.20;67.80;;;;;;5148214;27;20071;-74
2021/05/06 11:18:44;;;;;;;11.02;6.00;;;16.40;68.20;;;;;;5150678;27;20440;-74
2021/05/06 11:21:37;;;;;;;10.70;6.63;;;16.50;68.20;;;;;;5156141;27;20084;-77
2021/05/06 11:24:18;;;;;;;13.30;6.55;;;16.50;67.90;;;;;;5157281;27;20023;-75
2021/05/06 11:27:10;;;;;;;12.52;6.47;;;16.60;68.00;;;;;;5147267;27;20058;-74
2021/05/06 11:29:39;;;;;;;10.80;6.82;;;16.60;67.90;;;;;;5136687;27;20414;-75
2021/05/06 11:32:25;;;;;;;16.83;7.38;;;16.70;68.00;;;;;;5148633;27;20023;-75
2021/05/06 11:34:54;;;;;;;16.02;7.70;;;16.80;67.90;;;;;;5142256;27;20418;-75
2021/05/06 11:37:24;;;;;;;13.00;8.10;;;16.90;67.50;;;;;;5143742;27;20035;-75
2021/05/06 11:39:54;;;;;;;11.20;8.52;;;16.80;67.50;;;;;;5136838;27;20523;-75
2021/05/06 11:42:21;;;;;;;12.23;6.93;;;16.80;67.70;;;;;;5136469;27;20051;-74
2021/05/06 11:45:05;;;;;;;9.75;5.65;;;16.80;67.80;;;;;;5136448;27;20027;-76
2021/05/06 11:47:31;;;;;;;7.72;5.43;;;16.80;66.90;;;;;;5135602;27;20106;-76
2021/05/06 11:49:57;;;;;;;7.97;5.40;;;16.80;66.70;;;;;;5135740;27;20094;-75
2021/05/06 11:52:35;;;;;;;7.25;4.68;;;16.80;66.30;;;;;;5136065;27;20080;-76
2021/05/06 11:55:00;;;;;;;7.43;5.13;;;16.80;65.90;;;;;;5135912;27;20023;-75
2021/05/06 11:57:27;;;;;;;7.55;4.88;;;16.90;65.80;;;;;;5136072;27;20027;-75
2021/05/06 12:03:14;;;;;;;10.68;4.97;;;17.00;65.00;;;;;;5156858;27;20025;-75
2021/05/06 12:05:57;;;;;;;10.05;5.57;;;17.10;64.80;;;;;;5156878;27;20054;-76
2021/05/06 12:08:25;;;;;;;7.85;5.50;;;17.10;64.00;;;;;;5155793;27;20053;-75
2021/05/06 12:10:52;;;;;;;8.32;5.57;;;17.10;63.60;;;;;;5156415;27;20023;-75
2021/05/06 12:13:28;;;;;;;5.78;5.03;;;17.10;63.20;;;;;;5156271;27;20110;-75
2021/05/06 12:16:22;;;;;;;7.25;5.13;;;17.20;62.40;;;;;;5155932;27;20384;-75
2021/05/06 12:19:01;;;;;;;6.88;5.28;;;17.10;62.00;;;;;;5156021;27;20027;-75
2021/05/06 12:21:47;;;;;;;7.55;5.38;;;17.00;61.90;;;;;;5156474;27;20022;-75
2021/05/06 12:24:33;;;;;;;9.50;5.90;;;17.10;61.90;;;;;;5155792;27;20495;-75
2021/05/06 12:27:17;;;;;;;6.57;5.43;;;17.00;61.70;;;;;;5155807;27;20113;-76
2021/05/06 12:29:44;;;;;;;7.15;5.35;;;17.10;61.30;;;;;;5155622;27;20031;-76
2021/05/06 12:32:21;;;;;;;9.05;5.85;;;17.20;61.30;;;;;;5156524;27;20330;-76
2021/05/06 12:34:48;;;;;;;7.95;5.75;;;17.30;61.50;;;;;;5155039;27;20019;-74
2021/05/06 12:37:14;;;;;;;7.50;5.03;;;17.50;61.90;;;;;;5155396;27;20031;-75
2021/05/06 12:39:40;;;;;;;8.52;5.15;;;17.70;61.50;;;;;;5156018;27;20027;-77
2021/05/06 12:42:07;;;;;;;5.80;5.22;;;17.80;61.10;;;;;;5156210;27;20141;-74
2021/05/06 12:44:53;;;;;;;7.00;5.07;;;17.80;60.30;;;;;;5155853;27;20027;-74
2021/05/06 12:47:26;;;;;;;5.70;4.68;;;17.70;59.70;;;;;;5155296;27;20510;-75
2021/05/06 12:50:28;;;;;;;7.50;5.43;;;17.60;59.90;;;;;;5155802;27;20079;-79
2021/05/06 12:53:09;;;;;;;9.43;5.88;;;17.40;60.00;;;;;;5133977;27;20023;-79
2021/05/06 12:55:40;;;;;;;12.52;6.65;;;17.30;60.20;;;;;;5135462;27;20047;-76
2021/05/06 12:58:30;;;;;;;7.72;5.35;;;17.20;60.50;;;;;;5152443;27;20541;-75
2021/05/06 13:00:55;;;;;;;7.50;6.07;;;17.20;60.50;;;;;;5124900;27;20032;-81
2021/05/06 13:10:04;;;;;;;8.25;5.10;;;17.00;61.00;;;;;;5144421;27;20022;-80
2021/05/06 13:12:42;;;;;;;11.75;5.00;;;16.90;61.00;;;;;;5154401;27;20143;-81
2021/05/06 13:15:08;;;;;;;7.88;5.00;;;16.80;60.70;;;;;;5152367;27;20115;-81
2021/05/06 13:17:34;;;;;;;8.75;5.40;;;16.80;60.90;;;;;;5152550;27;20125;-82
2021/05/06 13:20:22;;;;;;;8.57;5.30;;;16.70;61.10;;;;;;5153564;27;20376;-80
2021/05/06 13:23:05;;;;;;;9.48;5.43;;;16.70;61.40;;;;;;5151810;27;20038;-80
2021/05/06 13:25:39;;;;;;;9.13;5.07;;;16.70;61.20;;;;;;5154676;27;20105;-81
2021/05/06 13:28:06;;;;;;;13.13;5.53;;;16.70;60.90;;;;;;5152429;27;20023;-80
2021/05/06 13:30:33;;;;;;;8.32;4.28;;;16.70;60.70;;;;;;5153501;27;20327;-82
2021/05/06 13:33:20;;;;;;;7.00;4.70;;;16.70;60.60;;;;;;5153516;27;20067;-81
2021/05/06 13:36:08;;;;;;;6.78;4.45;;;16.70;60.70;;;;;;5150561;27;20023;-80
2021/05/06 13:38:54;;;;;;;6.40;5.05;;;16.70;60.80;;;;;;5153296;27;20054;-80
2021/05/06 13:41:26;;;;;;;7.25;5.40;;;16.70;60.90;;;;;;5149105;27;20053;-80
2021/05/06 13:43:53;;;;;;;7.70;5.80;;;16.70;61.00;;;;;;5153882;27;20031;-81
2021/05/06 13:46:19;;;;;;;6.43;5.20;;;16.70;61.10;;;;;;5153779;27;20022;-80
2021/05/06 13:48:45;;;;;;;7.68;5.85;;;16.60;61.30;;;;;;5146879;27;20114;-80
2021/05/06 13:51:13;;;;;;;9.63;5.85;;;16.60;61.70;;;;;;5153962;27;20109;-79
2021/05/06 13:53:40;;;;;;;8.00;5.53;;;16.60;61.90;;;;;;5147248;27;20030;-81
2021/05/06 13:56:07;;;;;;;6.03;5.35;;;16.60;61.90;;;;;;5121119;27;20027;-82
2021/05/06 13:58:33;;;;;;;9.73;6.15;;;16.70;61.80;;;;;;5152882;27;20093;-82
2021/05/06 14:01:00;;;;;;;10.80;5.90;;;16.80;61.70;;;;;;5149831;27;20438;-82
2021/05/06 14:03:27;;;;;;;10.20;6.13;;;16.80;61.70;;;;;;5153054;27;20023;-81
2021/05/06 14:05:53;;;;;;;7.88;5.30;;;16.90;61.60;;;;;;5149997;27;20035;-81
2021/05/06 14:08:19;;;;;;;9.15;5.38;;;16.90;61.30;;;;;;5133206;27;20050;-81
2021/05/06 14:10:46;;;;;;;8.90;5.40;;;16.90;61.10;;;;;;5148723;27;20051;-81
2021/05/06 14:13:14;;;;;;;9.95;5.18;;;17.00;60.90;;;;;;5144512;27;20030;-80
2021/05/06 14:15:40;;;;;;;9.65;5.07;;;17.10;60.70;;;;;;5147811;27;20505;-81
2021/05/06 14:18:06;;;;;;;10.18;5.50;;;17.30;60.40;;;;;;5148603;27;20105;-82
2021/05/06 14:20:32;;;;;;;10.75;5.55;;;17.50;60.00;;;;;;5141822;27;20167;-81
2021/05/06 14:22:57;;;;;;;8.68;5.85;;;17.90;59.60;;;;;;5146473;27;20417;-80
2021/05/06 14:25:23;;;;;;;8.45;5.22;;;18.50;59.30;;;;;;5142374;27;20064;-80
2021/05/06 14:27:49;;;;;;;7.70;4.20;;;19.50;58.60;;;;;;5142637;27;20046;-84
2021/05/06 14:30:15;;;;;;;5.22;3.72;;;20.30;56.40;;;;;;5145151;27;20053;-81
2021/05/06 14:32:41;;;;;;;7.22;3.20;;;21.10;54.80;;;;;;5143420;27;20019;-82
2021/05/06 14:35:07;;;;;;;7.35;3.50;;;21.80;53.10;;;;;;5141825;27;20034;-82
2021/05/06 14:37:33;;;;;;;3.63;3.25;;;22.30;51.10;;;;;;5143712;27;20096;-80
2021/05/06 14:39:59;;;;;;;4.53;2.90;;;22.30;50.00;;;;;;5140165;27;20028;-81
2021/05/06 14:42:25;;;;;;;3.72;3.03;;;22.30;49.50;;;;;;5147051;27;20043;-80
2021/05/06 14:44:51;;;;;;;7.40;3.15;;;22.40;49.40;;;;;;5146834;27;20029;-80
2021/05/06 14:47:17;;;;;;;9.55;2.83;;;23.00;49.70;;;;;;5145973;27;20031;-81
2021/05/06 14:49:43;;;;;;;3.28;2.63;;;24.20;49.30;;;;;;5149604;27;20464;-80
2021/05/06 14:52:08;;;;;;;3.70;2.08;;;25.60;47.70;;;;;;5149843;27;20044;-80
2021/05/06 14:57:56;;;;;;;2.60;2.30;;;28.00;43.60;;;;;;5151120;27;20506;-80
2021/05/06 15:00:23;;;;;;;3.80;2.08;;;28.80;42.80;;;;;;5146143;27;20026;-80
2021/05/06 15:02:49;;;;;;;3.28;2.47;;;29.40;41.10;;;;;;5151893;27;20029;-79
2021/05/06 15:05:18;;;;;;;3.75;2.20;;;29.70;40.00;;;;;;5143593;27;20030;-80
2021/05/06 15:07:44;;;;;;;2.63;1.92;;;30.00;39.10;;;;;;5146140;27;20027;-81
2021/05/06 15:10:11;;;;;;;3.05;2.30;;;30.20;38.30;;;;;;5152450;27;20031;-81
2021/05/06 15:12:37;;;;;;;2.28;1.73;;;30.30;37.50;;;;;;5150745;27;20119;-80
2021/05/06 15:15:04;;;;;;;2.03;1.40;;;30.30;37.00;;;;;;5152756;27;20465;-79
2021/05/06 15:17:30;;;;;;;1.77;1.60;;;30.30;36.60;;;;;;5151503;27;20043;-81
2021/05/06 15:19:56;;;;;;;2.22;1.73;;;30.20;36.50;;;;;;5144532;27;20031;-81
2021/05/06 15:22:22;;;;;;;4.53;2.15;;;30.20;36.30;;;;;;5134873;27;20561;-80
2021/05/06 15:24:48;;;;;;;6.70;2.10;;;30.20;36.20;;;;;;5150408;27;20030;-81
2021/05/06 15:27:14;;;;;;;1.60;1.50;;;30.20;36.70;;;;;;5152409;27;20383;-82
2021/05/06 15:29:41;;;;;;;2.17;1.98;;;30.10;35.70;;;;;;5151661;27;20023;-80
2021/05/06 15:32:07;;;;;;;2.03;1.83;;;29.70;35.30;;;;;;5151241;27;20031;-80
2021/05/06 15:34:33;;;;;;;2.15;1.85;;;28.90;35.50;;;;;;5152459;27;20026;-80
2021/05/06 15:36:59;;;;;;;3.65;1.70;;;28.30;35.90;;;;;;5147258;27;20052;-81
2021/05/06 15:39:25;;;;;;;2.20;1.60;;;28.00;36.20;;;;;;5123125;27;20031;-82
2021/05/06 15:41:50;;;;;;;2.40;1.63;;;27.60;36.50;;;;;;5138868;27;20125;-81
2021/05/06 15:44:16;;;;;;;1.90;1.67;;;27.30;36.70;;;;;;5152497;27;20098;-80
2021/05/06 15:46:42;;;;;;;2.95;1.45;;;27.30;36.70;;;;;;5150503;27;20041;-81
2021/05/06 15:49:08;;;;;;;1.88;1.77;;;27.20;36.50;;;;;;5149945;27;20448;-80
2021/05/06 15:51:34;;;;;;;2.30;1.90;;;26.80;36.20;;;;;;5144643;27;20015;-79
2021/05/06 15:54:00;;;;;;;2.05;1.73;;;26.20;36.50;;;;;;5119212;27;20419;-79
2021/05/06 15:56:26;;;;;;;6.30;1.88;;;25.70;36.90;;;;;;5142817;27;20399;-79
2021/05/06 16:02:15;;;;;;;1.83;1.73;;;25.20;37.20;;;;;;5154750;27;20066;-82
2021/05/06 16:04:41;;;;;;;1.85;1.70;;;25.10;37.80;;;;;;5156743;27;20026;-79
2021/05/06 16:07:07;;;;;;;6.68;2.10;;;25.10;37.80;;;;;;5156558;27;20463;-80
2021/05/06 16:09:33;;;;;;;3.88;1.90;;;25.10;37.80;;;;;;5156339;27;20027;-83
2021/05/06 16:11:58;;;;;;;3.72;2.20;;;25.10;37.90;;;;;;5156322;27;20504;-81
2021/05/06 16:14:24;;;;;;;6.75;2.00;;;24.90;37.80;;;;;;5157036;27;20494;-81
2021/05/06 16:16:50;;;;;;;2.40;2.20;;;24.50;38.00;;;;;;5156571;27;20023;-79
2021/05/06 16:19:16;;;;;;;2.05;1.90;;;24.10;38.30;;;;;;5156363;27;20030;-81
2021/05/06 16:21:42;;;;;;;4.35;2.10;;;23.50;38.80;;;;;;5157187;27;20030;-80
2021/05/06 16:24:09;;;;;;;8.02;2.50;;;23.00;39.40;;;;;;5156894;27;20015;-79
2021/05/06 16:26:35;;;;;;;3.92;2.50;;;22.70;39.90;;;;;;5156610;27;20033;-80
2021/05/06 16:29:01;;;;;;;4.72;3.13;;;22.30;40.40;;;;;;5157202;27;20051;-81
2021/05/06 16:31:27;;;;;;;3.00;2.28;;;22.00;40.80;;;;;;5157159;27;20114;-80
2021/05/06 16:33:58;;;;;;;3.15;2.80;;;21.80;41.20;;;;;;5156686;27;20436;-80
2021/05/06 16:36:38;;;;;;;4.10;3.20;;;21.60;41.60;;;;;;5156332;27;20030;-80
2021/05/06 16:41:31;;;;;;;5.72;3.58;;;21.50;42.50;;;;;;5156762;27;20049;-79
2021/05/06 16:46:41;;;;;;;9.55;3.88;;;21.40;42.70;;;;;;5156373;27;20083;-80